Time;durP1;ratioP1;P1;durP2;ratioP2;P2;SDS_P1;SDS_P2;PMS_P1;PMS_P2;Temp;Humidity;BMP_temperature;BMP_pressure;BME280_temperature;BME280_humidity;BME280_pressure;Samples;Min_cycle;Max_cycle;Signal;HPM_P1;HPM_P2
2023/05/30 00:01:57;;;;;;;8.45;1.15;;;10.30;99.90;;;;;;5009579;28;20408;-68
2023/05/30 00:04:23;;;;;;;15.68;1.73;;;10.30;99.90;;;;;;5010208;28;20044;-68
2023/05/30 00:06:49;;;;;;;14.95;1.70;;;10.20;99.90;;;;;;5009330;28;20316;-67
2023/05/30 00:09:16;;;;;;;7.50;1.10;;;10.20;99.90;;;;;;5006710;28;20040;-67
2023/05/30 00:11:43;;;;;;;9.65;1.27;;;10.10;99.90;;;;;;5006034;28;21099;-67
2023/05/30 00:14:10;;;;;;;13.52;1.50;;;10.10;99.90;;;;;;4994127;28;20040;-68
2023/05/30 00:16:36;;;;;;;13.82;1.60;;;10.10;99.90;;;;;;5017755;28;20255;-68
2023/05/30 00:19:04;;;;;;;8.35;1.27;;;10.10;99.90;;;;;;5020474;28;20036;-68
2023/05/30 00:21:31;;;;;;;9.32;1.27;;;10.00;99.90;;;;;;5010110;28;20033;-67
2023/05/30 00:23:58;;;;;;;14.02;2.00;;;10.00;99.90;;;;;;5008699;28;22383;-68
2023/05/30 00:26:26;;;;;;;14.63;1.85;;;10.00;99.90;;;;;;5009478;28;20499;-68
2023/05/30 00:28:53;;;;;;;8.15;1.55;;;10.00;99.90;;;;;;5010756;28;20484;-68
2023/05/30 00:31:20;;;;;;;10.65;1.42;;;10.00;99.90;;;;;;5003597;28;20399;-67
2023/05/30 00:33:46;;;;;;;9.75;1.63;;;10.00;99.90;;;;;;4994117;28;20484;-67
2023/05/30 00:36:12;;;;;;;12.65;1.45;;;9.90;99.90;;;;;;5009738;28;20051;-68
2023/05/30 00:38:40;;;;;;;13.63;1.48;;;9.90;99.90;;;;;;5019207;28;20104;-68
2023/05/30 00:41:07;;;;;;;10.55;1.67;;;9.90;99.90;;;;;;4997669;28;20056;-68
2023/05/30 00:43:33;;;;;;;10.10;1.23;;;9.80;99.90;;;;;;4997235;28;20041;-68
2023/05/30 00:46:04;;;;;;;8.88;1.15;;;9.80;99.90;;;;;;5008017;28;20041;-67
2023/05/30 00:48:30;;;;;;;9.07;1.20;;;9.80;99.90;;;;;;5009475;28;20040;-67
2023/05/30 00:50:57;;;;;;;6.82;1.10;;;9.80;99.90;;;;;;5003429;28;20037;-68
2023/05/30 00:53:24;;;;;;;10.32;1.33;;;9.80;99.90;;;;;;5009561;28;20057;-68
2023/05/30 00:55:50;;;;;;;8.25;1.25;;;9.80;99.90;;;;;;4993035;28;20028;-68
2023/05/30 00:58:17;;;;;;;11.32;1.98;;;9.80;99.90;;;;;;5018087;28;20025;-67
2023/05/30 01:00:43;;;;;;;9.63;1.60;;;9.80;99.90;;;;;;5023890;28;21506;-68
2023/05/30 01:03:10;;;;;;;7.85;1.13;;;9.70;99.90;;;;;;4994193;28;20028;-68
2023/05/30 01:05:36;;;;;;;10.20;1.40;;;9.80;99.90;;;;;;4992742;28;20033;-68
2023/05/30 01:08:03;;;;;;;6.72;0.90;;;9.70;99.90;;;;;;4992767;28;20041;-67
2023/05/30 01:10:31;;;;;;;12.13;1.45;;;9.70;99.90;;;;;;5002077;28;20047;-68
2023/05/30 01:13:11;;;;;;;11.05;1.63;;;9.70;99.90;;;;;;5009477;28;20036;-67
2023/05/30 01:15:45;;;;;;;10.60;1.83;;;9.70;99.90;;;;;;5021136;28;20037;-67
2023/05/30 01:18:38;;;;;;;11.20;1.73;;;9.70;99.90;;;;;;4996591;28;20411;-67
2023/05/30 01:21:11;;;;;;;9.68;1.55;;;9.70;99.90;;;;;;5011604;28;20044;-68
2023/05/30 01:23:50;;;;;;;10.25;1.25;;;9.60;99.90;;;;;;5018573;28;20041;-69
2023/05/30 01:26:43;;;;;;;12.50;1.30;;;9.60;99.90;;;;;;5011544;28;20048;-68
2023/05/30 01:29:20;;;;;;;6.60;0.93;;;9.60;99.90;;;;;;5008086;28;20059;-67
2023/05/30 01:31:47;;;;;;;7.30;1.20;;;9.60;99.90;;;;;;5009081;28;20037;-68
2023/05/30 01:34:15;;;;;;;7.25;1.27;;;9.60;99.90;;;;;;4994367;28;20041;-67
2023/05/30 01:36:41;;;;;;;7.55;1.52;;;9.60;99.90;;;;;;5012018;28;20037;-67
2023/05/30 01:39:07;;;;;;;15.00;2.47;;;9.60;99.90;;;;;;5011161;28;20041;-67
2023/05/30 01:41:45;;;;;;;8.40;2.00;;;9.60;99.90;;;;;;4983647;28;20047;-68
2023/05/30 01:44:30;;;;;;;10.05;1.55;;;9.60;99.90;;;;;;5001621;28;20037;-69
2023/05/30 01:47:08;;;;;;;9.63;1.20;;;9.60;99.90;;;;;;5016013;28;20064;-68
2023/05/30 01:49:58;;;;;;;13.85;2.15;;;9.70;99.90;;;;;;5007716;28;20551;-68
2023/05/30 01:52:29;;;;;;;7.63;1.10;;;9.70;99.90;;;;;;5006135;28;20052;-68
2023/05/30 01:55:02;;;;;;;6.60;1.00;;;9.70;99.90;;;;;;5010482;28;20395;-68
2023/05/30 01:57:30;;;;;;;9.27;1.58;;;9.80;99.90;;;;;;4979485;28;21247;-67
2023/05/30 01:59:58;;;;;;;9.52;1.33;;;9.80;99.90;;;;;;5005864;28;20037;-67
2023/05/30 02:02:25;;;;;;;12.00;1.60;;;9.80;99.90;;;;;;5020619;28;20048;-68
2023/05/30 02:04:51;;;;;;;9.57;1.77;;;9.90;99.90;;;;;;4989834;28;20063;-68
2023/05/30 02:07:18;;;;;;;11.82;1.70;;;9.90;99.90;;;;;;5017489;28;20546;-68
2023/05/30 02:09:44;;;;;;;8.43;1.30;;;10.00;99.90;;;;;;5005179;28;20044;-67
2023/05/30 02:12:11;;;;;;;11.82;1.58;;;10.00;99.90;;;;;;5010780;28;20428;-67
2023/05/30 02:14:38;;;;;;;11.35;1.25;;;10.10;99.90;;;;;;5012429;28;20040;-67
2023/05/30 02:17:05;;;;;;;10.30;1.50;;;10.10;99.90;;;;;;5025424;28;20047;-68
2023/05/30 02:19:31;;;;;;;14.57;2.13;;;10.10;99.90;;;;;;5006734;28;20040;-68
2023/05/30 02:21:57;;;;;;;9.15;1.63;;;10.10;99.90;;;;;;4994049;28;20041;-68
2023/05/30 02:24:24;;;;;;;8.40;1.33;;;10.20;99.90;;;;;;5021281;28;20037;-69
2023/05/30 02:26:50;;;;;;;8.55;1.13;;;10.30;99.90;;;;;;5020221;28;20702;-67
2023/05/30 02:29:16;;;;;;;11.18;1.73;;;10.30;99.90;;;;;;4996372;28;20045;-68
2023/05/30 02:31:42;;;;;;;9.23;1.00;;;10.40;99.90;;;;;;5007908;28;20396;-67
2023/05/30 02:34:09;;;;;;;11.82;1.90;;;10.40;99.90;;;;;;5013504;28;21061;-68
2023/05/30 02:36:38;;;;;;;9.52;1.95;;;10.50;99.90;;;;;;4995633;28;20040;-68
2023/05/30 02:39:07;;;;;;;10.73;2.20;;;10.50;99.90;;;;;;5010433;28;20025;-68
2023/05/30 02:41:37;;;;;;;9.23;1.35;;;10.50;99.90;;;;;;5007628;28;20434;-68
2023/05/30 02:44:06;;;;;;;11.10;1.85;;;10.50;99.90;;;;;;5030002;28;20045;-68
2023/05/30 02:46:33;;;;;;;9.40;1.92;;;10.50;99.90;;;;;;5020783;28;20029;-69
2023/05/30 02:49:01;;;;;;;8.23;1.40;;;10.50;99.90;;;;;;5017704;28;20063;-68
2023/05/30 02:51:28;;;;;;;11.75;1.52;;;10.60;99.90;;;;;;4986318;28;20044;-67
2023/05/30 02:53:55;;;;;;;5.90;1.17;;;10.60;99.90;;;;;;5009430;28;20814;-68
2023/05/30 02:56:30;;;;;;;9.10;1.77;;;10.60;99.90;;;;;;5009879;28;20036;-68
2023/05/30 02:59:06;;;;;;;6.55;1.20;;;10.70;99.90;;;;;;5010980;28;20033;-67
2023/05/30 03:01:48;;;;;;;11.30;2.28;;;10.70;99.90;;;;;;4979234;28;20037;-68
2023/05/30 03:04:15;;;;;;;12.45;1.90;;;10.70;99.90;;;;;;4999301;28;20912;-68
2023/05/30 03:06:44;;;;;;;12.25;2.03;;;10.70;99.90;;;;;;5032256;28;20044;-68
2023/05/30 03:09:23;;;;;;;7.65;1.23;;;10.80;99.90;;;;;;5017155;28;20041;-68
2023/05/30 03:11:49;;;;;;;8.63;1.45;;;10.80;99.90;;;;;;5010435;28;20059;-68
2023/05/30 03:14:16;;;;;;;11.85;1.95;;;10.80;99.90;;;;;;4994010;28;20476;-67
2023/05/30 03:16:48;;;;;;;13.73;2.70;;;10.80;99.90;;;;;;5010162;28;21547;-69
2023/05/30 03:19:17;;;;;;;11.48;1.75;;;10.80;99.90;;;;;;4993676;28;20041;-68
2023/05/30 03:21:45;;;;;;;8.20;1.77;;;10.80;99.90;;;;;;5008209;28;20021;-68
2023/05/30 03:24:13;;;;;;;9.95;2.35;;;10.80;99.90;;;;;;5013892;28;20036;-68
2023/05/30 03:26:44;;;;;;;9.43;1.65;;;10.80;99.90;;;;;;5021114;28;20728;-68
2023/05/30 03:29:12;;;;;;;8.88;1.88;;;10.80;99.90;;;;;;5020088;28;20539;-68
2023/05/30 03:31:38;;;;;;;8.18;1.60;;;10.80;99.90;;;;;;5008975;28;20033;-68
2023/05/30 03:34:05;;;;;;;8.00;2.15;;;10.90;99.90;;;;;;5011329;28;20044;-68
2023/05/30 03:36:31;;;;;;;9.05;1.75;;;10.90;99.90;;;;;;5010090;28;20029;-68
2023/05/30 03:38:58;;;;;;;8.93;1.85;;;10.90;99.90;;;;;;5012048;28;20024;-68
2023/05/30 03:41:25;;;;;;;9.82;2.60;;;10.90;99.90;;;;;;5003125;28;20036;-68
2023/05/30 03:43:52;;;;;;;9.73;1.83;;;10.90;99.90;;;;;;5011025;28;20029;-69
2023/05/30 03:46:19;;;;;;;8.55;1.52;;;10.90;99.90;;;;;;5013262;28;20037;-69
2023/05/30 03:48:47;;;;;;;10.30;1.33;;;10.90;99.90;;;;;;5019426;28;20029;-68
2023/05/30 03:51:13;;;;;;;14.93;2.63;;;11.00;99.90;;;;;;5011147;28;20032;-68
2023/05/30 03:53:42;;;;;;;11.10;2.33;;;11.00;99.90;;;;;;5030296;28;23105;-68
2023/05/30 03:56:08;;;;;;;8.10;2.03;;;11.00;99.90;;;;;;5007231;28;20073;-68
2023/05/30 03:58:34;;;;;;;12.65;2.78;;;11.10;99.90;;;;;;5008587;28;20036;-68
2023/05/30 04:01:01;;;;;;;10.80;1.80;;;11.10;99.90;;;;;;5003025;28;20506;-68
2023/05/30 04:03:28;;;;;;;9.23;2.65;;;11.10;99.90;;;;;;4993379;28;20331;-67
2023/05/30 04:05:58;;;;;;;9.60;2.42;;;11.10;99.90;;;;;;5010397;28;20032;-67
2023/05/30 04:08:25;;;;;;;9.93;2.15;;;11.20;99.90;;;;;;5015289;28;20048;-67
2023/05/30 04:10:52;;;;;;;9.75;2.10;;;11.20;99.90;;;;;;4996973;28;20067;-67
2023/05/30 04:13:21;;;;;;;10.10;2.35;;;11.20;99.90;;;;;;5015830;28;20040;-67
2023/05/30 04:15:49;;;;;;;8.23;2.03;;;11.20;99.90;;;;;;5005942;28;20037;-66
2023/05/30 04:18:15;;;;;;;12.75;3.13;;;11.20;99.90;;;;;;5020042;28;20491;-68
2023/05/30 04:20:41;;;;;;;11.45;2.70;;;11.20;99.90;;;;;;5003306;28;20037;-66
2023/05/30 04:23:08;;;;;;;11.63;2.55;;;11.30;99.90;;;;;;5010117;28;20033;-68
2023/05/30 04:25:35;;;;;;;6.72;1.85;;;11.30;99.90;;;;;;5010375;28;20539;-67
2023/05/30 04:28:03;;;;;;;6.63;1.95;;;11.30;99.90;;;;;;5008098;28;20052;-67
2023/05/30 04:30:32;;;;;;;8.30;1.90;;;11.40;99.90;;;;;;5012114;28;20056;-67
2023/05/30 04:32:58;;;;;;;12.82;2.25;;;11.40;99.90;;;;;;5014344;28;20798;-67
2023/05/30 04:35:26;;;;;;;12.18;3.53;;;11.50;99.90;;;;;;4997992;28;20045;-68
2023/05/30 04:37:53;;;;;;;11.98;4.78;;;11.40;99.90;;;;;;5010002;28;20041;-68
2023/05/30 04:40:20;;;;;;;12.35;4.07;;;11.50;99.90;;;;;;4987594;28;20045;-67
2023/05/30 04:42:51;;;;;;;11.63;2.95;;;11.50;99.90;;;;;;5009415;28;20272;-68
2023/05/30 04:45:18;;;;;;;14.18;3.10;;;11.50;99.90;;;;;;5010004;28;20041;-66
2023/05/30 04:48:10;;;;;;;12.32;4.80;;;11.50;99.90;;;;;;4995749;28;20396;-68
2023/05/30 04:50:38;;;;;;;11.07;4.18;;;11.50;99.90;;;;;;5009428;28;20041;-67
2023/05/30 04:53:05;;;;;;;12.23;3.60;;;11.60;99.90;;;;;;5019249;28;20064;-68
2023/05/30 04:55:31;;;;;;;13.40;3.67;;;11.60;99.90;;;;;;4998677;28;20041;-67
2023/05/30 04:57:58;;;;;;;10.15;2.97;;;11.60;99.90;;;;;;5009063;28;20040;-68
2023/05/30 05:00:24;;;;;;;11.18;2.95;;;11.70;99.90;;;;;;5003479;28;20033;-67
2023/05/30 05:02:51;;;;;;;11.70;2.58;;;11.70;99.90;;;;;;5012935;28;20041;-67
2023/05/30 05:05:17;;;;;;;11.85;3.10;;;11.70;99.90;;;;;;5012932;28;20691;-68
2023/05/30 05:07:43;;;;;;;14.55;3.67;;;11.70;99.90;;;;;;5029954;28;20983;-68
2023/05/30 05:10:10;;;;;;;10.27;2.75;;;11.80;99.90;;;;;;5016193;28;20041;-68
2023/05/30 05:12:36;;;;;;;12.93;4.25;;;11.80;99.90;;;;;;5034321;28;20439;-68
2023/05/30 05:15:03;;;;;;;10.38;4.30;;;11.80;99.90;;;;;;5000733;28;20044;-68
2023/05/30 05:17:29;;;;;;;9.27;3.63;;;11.80;99.90;;;;;;5013745;28;20029;-68
2023/05/30 05:19:55;;;;;;;10.13;3.78;;;12.00;99.90;;;;;;5005473;28;20922;-68
2023/05/30 05:22:22;;;;;;;12.27;3.58;;;12.00;99.90;;;;;;5012422;28;20479;-67
2023/05/30 05:24:48;;;;;;;10.20;3.63;;;12.00;99.90;;;;;;5013170;28;20040;-68
2023/05/30 05:27:14;;;;;;;12.23;3.47;;;12.00;99.90;;;;;;5014119;28;20400;-68
2023/05/30 05:29:41;;;;;;;11.20;5.47;;;12.10;99.90;;;;;;4999522;28;20036;-68
2023/05/30 05:32:08;;;;;;;9.18;3.15;;;12.10;99.90;;;;;;5023331;28;20399;-68
2023/05/30 05:34:34;;;;;;;8.65;2.55;;;12.10;99.90;;;;;;5004336;28;21252;-68
2023/05/30 05:37:00;;;;;;;10.27;2.45;;;12.20;99.90;;;;;;5014759;28;20037;-68
2023/05/30 05:39:26;;;;;;;6.43;2.28;;;12.20;99.90;;;;;;4992000;28;20528;-68
2023/05/30 05:41:53;;;;;;;8.98;2.38;;;12.30;99.90;;;;;;4994082;28;20491;-68
2023/05/30 05:44:19;;;;;;;6.95;2.22;;;12.40;99.90;;;;;;5014034;28;20477;-68
2023/05/30 05:46:45;;;;;;;9.20;2.47;;;12.50;99.90;;;;;;5013192;28;20041;-67
2023/05/30 05:49:11;;;;;;;8.25;2.17;;;12.50;99.90;;;;;;5014460;28;20029;-68
2023/05/30 05:51:38;;;;;;;8.32;2.75;;;12.50;99.90;;;;;;5017845;28;20847;-68
2023/05/30 05:54:04;;;;;;;9.82;2.30;;;12.50;99.90;;;;;;5025254;28;20040;-68
2023/05/30 05:56:31;;;;;;;13.23;3.67;;;12.60;99.90;;;;;;5015809;28;20037;-68
2023/05/30 05:58:57;;;;;;;9.15;2.45;;;12.60;99.90;;;;;;5011721;28;20033;-68
2023/05/30 06:01:23;;;;;;;5.18;1.65;;;12.70;99.90;;;;;;5005908;28;20494;-68
2023/05/30 06:03:50;;;;;;;7.18;2.35;;;12.80;99.90;;;;;;5012918;28;20052;-67
2023/05/30 06:06:16;;;;;;;8.02;2.38;;;12.80;99.90;;;;;;5014145;28;20044;-68
2023/05/30 06:08:45;;;;;;;13.55;2.53;;;12.80;99.90;;;;;;5012745;28;20033;-68
2023/05/30 06:11:12;;;;;;;5.03;1.90;;;12.90;99.90;;;;;;5012818;28;20041;-69
2023/05/30 06:13:38;;;;;;;8.63;2.00;;;12.90;99.90;;;;;;5024134;28;20021;-68
2023/05/30 06:16:05;;;;;;;5.10;1.33;;;13.00;99.90;;;;;;5029571;28;20037;-68
2023/05/30 06:18:31;;;;;;;10.18;3.15;;;13.10;99.90;;;;;;5010260;28;20028;-69
2023/05/30 06:20:57;;;;;;;19.27;9.95;;;13.20;99.90;;;;;;5007133;28;20033;-69
2023/05/30 06:23:24;;;;;;;12.23;3.45;;;13.20;99.90;;;;;;5026275;28;20042;-68
2023/05/30 06:25:50;;;;;;;9.50;3.00;;;13.30;99.90;;;;;;5012578;28;20436;-67
2023/05/30 06:28:16;;;;;;;10.10;2.65;;;13.20;99.90;;;;;;5010094;28;20040;-68
2023/05/30 06:30:43;;;;;;;7.97;1.98;;;13.30;99.90;;;;;;5006965;28;20324;-69
2023/05/30 06:33:09;;;;;;;6.63;2.00;;;13.30;99.90;;;;;;5003319;28;20037;-68
2023/05/30 06:35:35;;;;;;;9.27;2.80;;;13.40;99.90;;;;;;5004697;28;20029;-69
2023/05/30 06:38:02;;;;;;;11.60;2.58;;;13.40;99.90;;;;;;5014432;28;20372;-68
2023/05/30 06:40:28;;;;;;;7.72;2.08;;;13.50;99.90;;;;;;5006403;28;20037;-68
2023/05/30 06:42:54;;;;;;;9.23;2.85;;;13.50;99.90;;;;;;5012326;28;20041;-68
2023/05/30 06:45:21;;;;;;;6.28;2.25;;;13.60;99.90;;;;;;5024653;28;20396;-68
2023/05/30 06:47:47;;;;;;;8.20;2.20;;;13.60;99.90;;;;;;5011723;28;20036;-67
2023/05/30 06:50:14;;;;;;;8.02;1.90;;;13.60;99.90;;;;;;5005577;28;20052;-68
2023/05/30 06:52:40;;;;;;;8.93;2.35;;;13.60;99.90;;;;;;5001516;28;20420;-68
2023/05/30 06:55:07;;;;;;;7.38;2.33;;;13.50;99.90;;;;;;5003485;28;20037;-68
2023/05/30 06:57:36;;;;;;;9.48;2.40;;;13.50;99.90;;;;;;5002475;28;20032;-68
2023/05/30 07:00:04;;;;;;;7.88;2.58;;;13.50;99.90;;;;;;5005662;28;20377;-68
2023/05/30 07:02:30;;;;;;;11.70;3.05;;;13.60;99.90;;;;;;5011704;28;20041;-67
2023/05/30 07:04:56;;;;;;;10.13;2.47;;;13.70;99.90;;;;;;5012727;28;20025;-67
2023/05/30 07:07:22;;;;;;;8.13;2.25;;;13.90;99.90;;;;;;5010597;28;20044;-67
2023/05/30 07:09:49;;;;;;;12.38;2.42;;;14.10;99.90;;;;;;5005844;28;20040;-67
2023/05/30 07:12:15;;;;;;;10.63;2.47;;;14.20;99.90;;;;;;5014798;28;20589;-67
2023/05/30 07:14:41;;;;;;;8.15;2.42;;;14.40;99.90;;;;;;5022295;28;20126;-68
2023/05/30 07:17:08;;;;;;;7.03;1.80;;;14.40;99.90;;;;;;5020512;28;20032;-68
2023/05/30 07:19:34;;;;;;;10.63;2.85;;;14.60;99.90;;;;;;5012318;28;20032;-67
2023/05/30 07:22:01;;;;;;;8.88;2.15;;;14.80;99.90;;;;;;5013481;28;20040;-67
2023/05/30 07:24:27;;;;;;;8.10;1.65;;;15.00;99.90;;;;;;5012942;28;20048;-68
2023/05/30 07:26:53;;;;;;;6.97;2.25;;;15.10;99.90;;;;;;5012143;28;20040;-68
2023/05/30 07:29:19;;;;;;;9.23;1.83;;;15.20;99.90;;;;;;5007130;28;20341;-67
2023/05/30 07:31:46;;;;;;;9.57;2.80;;;15.50;99.90;;;;;;5009338;28;20057;-68
2023/05/30 07:34:12;;;;;;;8.13;2.03;;;15.80;99.90;;;;;;5014258;28;20035;-68
2023/05/30 07:36:39;;;;;;;8.82;2.17;;;16.20;99.90;;;;;;5020863;28;20048;-68
2023/05/30 07:39:05;;;;;;;6.30;1.77;;;16.40;99.90;;;;;;5020347;28;20111;-67
2023/05/30 07:41:31;;;;;;;11.13;2.00;;;16.50;99.90;;;;;;5011620;28;20396;-68
2023/05/30 07:43:57;;;;;;;6.97;1.42;;;16.70;99.90;;;;;;5024085;28;20563;-68
2023/05/30 07:46:24;;;;;;;12.85;2.33;;;16.90;99.90;;;;;;4993811;28;20047;-67
2023/05/30 07:48:50;;;;;;;7.07;2.13;;;17.20;99.90;;;;;;5013555;28;20044;-67
2023/05/30 07:51:19;;;;;;;13.02;2.97;;;17.40;99.90;;;;;;5006834;28;20040;-68
2023/05/30 07:53:45;;;;;;;7.88;2.30;;;17.40;99.00;;;;;;5011148;28;20049;-68
2023/05/30 07:56:12;;;;;;;8.05;2.58;;;17.40;98.80;;;;;;5019654;28;20562;-68
2023/05/30 07:58:38;;;;;;;13.25;3.65;;;17.40;98.40;;;;;;5019409;28;20041;-67
2023/05/30 08:01:05;;;;;;;10.10;2.20;;;17.40;97.90;;;;;;5014009;28;20052;-67
2023/05/30 08:03:31;;;;;;;8.82;2.55;;;17.50;98.40;;;;;;5012874;28;20041;-68
2023/05/30 08:05:58;;;;;;;7.88;2.75;;;17.80;97.80;;;;;;5010369;28;20037;-68
2023/05/30 08:08:25;;;;;;;8.20;1.90;;;18.00;97.40;;;;;;5011126;28;20048;-68
2023/05/30 08:10:51;;;;;;;10.40;2.85;;;18.00;97.40;;;;;;4973936;28;20269;-68
2023/05/30 08:13:18;;;;;;;8.23;2.90;;;17.90;97.00;;;;;;5012524;28;20044;-68
2023/05/30 08:15:45;;;;;;;4.93;1.83;;;17.70;96.70;;;;;;5016943;28;20032;-68
2023/05/30 08:18:11;;;;;;;9.35;2.10;;;17.50;97.00;;;;;;5019664;28;20029;-68
2023/05/30 08:20:38;;;;;;;7.47;2.35;;;17.40;97.20;;;;;;5012159;28;20509;-68
2023/05/30 08:23:05;;;;;;;7.88;2.75;;;17.20;97.10;;;;;;4996794;28;20032;-67
2023/05/30 08:25:33;;;;;;;10.60;2.92;;;17.30;97.10;;;;;;5011086;28;20697;-68
2023/05/30 08:27:59;;;;;;;8.55;3.30;;;17.40;97.10;;;;;;5012189;28;20338;-68
2023/05/30 08:30:26;;;;;;;6.85;2.67;;;17.60;96.20;;;;;;5003722;28;20064;-68
2023/05/30 08:32:53;;;;;;;11.23;2.30;;;17.80;96.40;;;;;;5010795;28;20380;-69
2023/05/30 08:35:20;;;;;;;8.45;2.80;;;18.00;96.10;;;;;;5011185;28;20043;-68
2023/05/30 08:37:47;;;;;;;5.63;1.60;;;18.20;95.60;;;;;;5020909;28;20432;-68
2023/05/30 08:40:13;;;;;;;10.25;3.38;;;18.30;95.60;;;;;;5017992;28;20542;-68
2023/05/30 08:42:41;;;;;;;9.95;2.28;;;18.50;95.10;;;;;;5023007;28;20037;-67
2023/05/30 08:45:08;;;;;;;9.73;2.35;;;18.60;94.80;;;;;;5016310;28;20366;-68
2023/05/30 08:47:35;;;;;;;5.00;1.73;;;18.80;94.60;;;;;;5014236;28;20044;-67
2023/05/30 08:50:04;;;;;;;5.47;2.20;;;18.80;94.70;;;;;;5009086;28;20783;-69
2023/05/30 08:52:32;;;;;;;6.63;2.40;;;18.90;94.50;;;;;;5013503;28;20411;-68
2023/05/30 08:55:16;;;;;;;6.63;1.75;;;18.80;94.30;;;;;;5015945;28;20052;-68
2023/05/30 08:58:07;;;;;;;7.50;2.08;;;19.00;94.40;;;;;;4981709;28;20044;-67
2023/05/30 09:00:35;;;;;;;8.55;2.20;;;19.00;94.30;;;;;;5015690;28;20033;-68
2023/05/30 09:03:05;;;;;;;7.50;1.85;;;19.00;94.20;;;;;;5026186;28;20044;-68
2023/05/30 09:05:35;;;;;;;5.93;1.60;;;19.10;94.10;;;;;;5022177;28;20090;-69
2023/05/30 09:08:02;;;;;;;6.82;2.20;;;19.10;94.10;;;;;;5014377;28;20033;-68
2023/05/30 09:10:29;;;;;;;6.70;1.65;;;19.20;94.00;;;;;;5008376;28;20040;-68
2023/05/30 09:12:57;;;;;;;5.03;1.50;;;19.40;93.60;;;;;;5012718;28;20040;-67
2023/05/30 09:15:24;;;;;;;5.90;1.27;;;19.40;93.40;;;;;;5013555;28;20037;-68
2023/05/30 09:17:50;;;;;;;8.98;2.55;;;19.30;93.40;;;;;;5026521;28;20488;-67
2023/05/30 09:20:17;;;;;;;6.63;2.42;;;19.40;93.20;;;;;;5013775;28;20037;-68
2023/05/30 09:22:46;;;;;;;10.15;3.17;;;19.50;92.80;;;;;;5024054;28;20037;-68
2023/05/30 09:25:17;;;;;;;6.68;2.17;;;19.80;92.10;;;;;;5023906;28;20032;-68
2023/05/30 09:27:48;;;;;;;7.63;2.00;;;19.80;91.90;;;;;;5015248;28;20235;-68
2023/05/30 09:30:15;;;;;;;4.28;1.75;;;19.90;91.90;;;;;;5006024;28;20358;-69
2023/05/30 09:32:58;;;;;;;7.32;2.33;;;20.00;92.00;;;;;;5013682;28;20039;-67
2023/05/30 09:35:25;;;;;;;5.93;1.90;;;20.30;91.80;;;;;;5013990;28;20029;-68
2023/05/30 09:37:51;;;;;;;7.40;1.80;;;20.40;91.70;;;;;;5013790;28;20044;-68
2023/05/30 09:40:18;;;;;;;6.65;2.42;;;20.60;91.10;;;;;;5008549;28;20033;-67
2023/05/30 09:42:50;;;;;;;8.95;2.40;;;20.60;90.70;;;;;;5024796;28;20036;-67
2023/05/30 09:45:21;;;;;;;4.55;1.25;;;20.70;90.10;;;;;;5024437;28;20032;-68
2023/05/30 09:47:50;;;;;;;7.78;2.92;;;20.70;90.40;;;;;;5020052;28;20284;-68
2023/05/30 09:50:19;;;;;;;5.22;1.83;;;20.80;90.50;;;;;;5006529;28;20040;-68
2023/05/30 09:52:48;;;;;;;6.18;1.92;;;20.90;90.20;;;;;;5014117;28;20068;-68
2023/05/30 09:55:15;;;;;;;12.00;3.05;;;21.10;90.10;;;;;;5012982;28;20037;-67
2023/05/30 09:57:50;;;;;;;14.48;3.45;;;21.20;88.40;;;;;;5012882;28;20316;-68
2023/05/30 10:00:23;;;;;;;7.40;2.03;;;21.10;87.20;;;;;;5006480;28;20048;-67
2023/05/30 10:02:54;;;;;;;9.02;2.58;;;21.10;87.80;;;;;;5019404;28;20033;-68
2023/05/30 10:05:28;;;;;;;6.10;1.23;;;21.10;87.00;;;;;;5022118;28;20032;-68
2023/05/30 10:07:57;;;;;;;7.50;2.17;;;21.20;87.40;;;;;;5021217;28;20025;-68
2023/05/30 10:10:24;;;;;;;9.77;2.00;;;21.30;86.40;;;;;;5004262;28;20385;-67
2023/05/30 10:12:55;;;;;;;7.18;2.40;;;21.30;86.20;;;;;;5011513;28;20047;-68
2023/05/30 10:15:23;;;;;;;7.13;2.20;;;21.40;85.70;;;;;;4995620;28;20025;-68
2023/05/30 10:17:53;;;;;;;7.38;1.85;;;21.50;85.50;;;;;;5013706;28;20025;-67
2023/05/30 10:20:23;;;;;;;9.95;2.70;;;21.60;84.80;;;;;;5004759;28;20041;-67
2023/05/30 10:22:54;;;;;;;9.13;2.63;;;21.60;83.20;;;;;;4998966;28;20476;-68
2023/05/30 10:25:23;;;;;;;6.20;2.60;;;21.50;83.60;;;;;;5021137;28;20452;-68
2023/05/30 10:27:53;;;;;;;9.32;3.05;;;21.70;84.20;;;;;;5019091;28;20033;-68
2023/05/30 10:30:29;;;;;;;7.55;2.30;;;22.10;83.90;;;;;;5017563;28;20037;-69
2023/05/30 10:33:10;;;;;;;5.82;1.65;;;22.30;82.70;;;;;;5013834;28;20048;-68
2023/05/30 10:35:37;;;;;;;10.27;2.58;;;22.60;81.50;;;;;;5014619;28;20040;-68
2023/05/30 10:38:06;;;;;;;9.98;2.40;;;22.70;80.70;;;;;;4992301;28;20056;-67
2023/05/30 10:40:51;;;;;;;7.25;2.15;;;23.00;80.30;;;;;;4986895;28;20826;-68
2023/05/30 10:43:34;;;;;;;8.57;2.30;;;23.20;79.40;;;;;;5015496;28;20392;-68
2023/05/30 10:46:13;;;;;;;6.22;1.90;;;23.50;79.20;;;;;;5019092;28;20472;-69
2023/05/30 10:48:49;;;;;;;6.20;2.45;;;23.80;78.90;;;;;;5019417;28;20408;-67
2023/05/30 10:51:15;;;;;;;6.35;1.30;;;24.00;77.70;;;;;;5004029;28;20056;-67
2023/05/30 10:53:44;;;;;;;7.68;2.90;;;24.30;77.20;;;;;;5011231;28;20049;-69
2023/05/30 10:56:29;;;;;;;10.60;2.25;;;24.40;75.10;;;;;;5012375;28;20081;-68
2023/05/30 10:58:56;;;;;;;7.65;2.33;;;24.60;74.30;;;;;;5011337;28;20037;-68
2023/05/30 11:01:26;;;;;;;6.88;2.20;;;24.70;73.40;;;;;;5001211;28;20036;-67
2023/05/30 11:04:04;;;;;;;10.55;3.25;;;25.00;73.40;;;;;;5016554;28;20415;-67
2023/05/30 11:06:34;;;;;;;7.22;2.15;;;25.40;72.20;;;;;;5020750;28;20041;-68
2023/05/30 11:09:15;;;;;;;6.88;1.98;;;25.60;71.50;;;;;;5018779;28;20037;-68
2023/05/30 11:11:58;;;;;;;14.65;3.97;;;25.80;70.30;;;;;;5006383;28;20040;-67
2023/05/30 11:14:29;;;;;;;5.40;1.60;;;26.00;70.30;;;;;;5010944;28;20431;-67
2023/05/30 11:17:08;;;;;;;7.60;2.03;;;26.30;69.50;;;;;;5013144;28;20047;-69
2023/05/30 11:19:47;;;;;;;5.60;1.77;;;26.60;68.40;;;;;;5004968;28;20526;-67
2023/05/30 11:22:15;;;;;;;5.32;1.60;;;26.90;68.00;;;;;;5012675;28;21869;-67
2023/05/30 11:24:42;;;;;;;6.25;2.08;;;27.10;66.50;;;;;;5015665;28;20044;-69
2023/05/30 11:27:12;;;;;;;6.78;3.60;;;27.30;66.00;;;;;;5019396;28;20421;-68
2023/05/30 11:29:55;;;;;;;14.45;10.95;;;27.70;64.90;;;;;;5013524;28;20507;-68
2023/05/30 11:32:24;;;;;;;15.43;9.55;;;27.80;63.60;;;;;;5021291;28;20037;-68
2023/05/30 11:35:00;;;;;;;16.23;9.10;;;27.80;63.50;;;;;;5011712;28;20111;-68
2023/05/30 11:37:35;;;;;;;10.63;6.63;;;28.10;62.70;;;;;;5009540;28;20083;-68
2023/05/30 11:40:05;;;;;;;9.65;4.35;;;28.40;61.90;;;;;;5002574;28;20048;-69
2023/05/30 11:42:32;;;;;;;7.80;2.75;;;28.50;60.00;;;;;;5012220;28;20061;-69
2023/05/30 11:44:58;;;;;;;6.22;2.40;;;28.20;59.50;;;;;;5013721;28;20025;-68
2023/05/30 11:47:25;;;;;;;4.65;2.00;;;28.10;59.20;;;;;;5002373;28;20037;-68
2023/05/30 11:49:56;;;;;;;3.95;1.65;;;28.30;59.70;;;;;;4994262;28;20404;-68
2023/05/30 11:52:22;;;;;;;6.28;1.90;;;28.70;59.60;;;;;;5019238;28;20378;-68
2023/05/30 11:54:48;;;;;;;5.95;2.38;;;29.10;58.20;;;;;;5010734;28;20029;-69
2023/05/30 11:57:17;;;;;;;8.20;2.67;;;29.20;58.10;;;;;;4993965;28;20037;-68
2023/05/30 11:59:48;;;;;;;6.25;1.95;;;29.40;57.50;;;;;;5016976;28;20041;-68
2023/05/30 12:02:15;;;;;;;4.13;1.30;;;29.60;57.50;;;;;;4993874;28;20040;-68
2023/05/30 12:04:42;;;;;;;6.85;1.58;;;29.70;56.80;;;;;;5011491;28;20795;-69
2023/05/30 12:07:09;;;;;;;4.13;1.50;;;29.90;56.90;;;;;;5014589;28;20045;-69
2023/05/30 12:09:40;;;;;;;4.65;1.17;;;30.20;56.80;;;;;;5016922;28;20049;-67
2023/05/30 12:12:07;;;;;;;5.50;1.90;;;30.30;55.10;;;;;;5017984;28;20039;-68
2023/05/30 12:14:37;;;;;;;5.32;1.52;;;30.10;54.50;;;;;;5014193;28;20044;-68
2023/05/30 12:17:14;;;;;;;4.70;1.67;;;30.10;54.50;;;;;;5010697;28;20048;-68
2023/05/30 12:19:42;;;;;;;4.47;1.65;;;30.40;54.10;;;;;;4991553;28;20045;-68
2023/05/30 12:22:09;;;;;;;5.20;1.70;;;30.50;54.00;;;;;;5026922;28;20041;-69
2023/05/30 12:24:36;;;;;;;4.53;1.88;;;30.50;53.10;;;;;;5021290;28;20037;-68
2023/05/30 12:27:14;;;;;;;6.05;2.45;;;30.50;52.20;;;;;;5012147;28;20301;-68
2023/05/30 12:29:41;;;;;;;4.68;1.63;;;30.20;52.70;;;;;;5029473;28;20060;-68
2023/05/30 12:32:07;;;;;;;5.03;1.63;;;30.30;53.10;;;;;;5002754;28;20507;-69
2023/05/30 12:34:43;;;;;;;6.60;2.42;;;30.40;53.10;;;;;;5016880;28;20037;-69
2023/05/30 12:37:11;;;;;;;7.57;1.83;;;30.60;52.30;;;;;;5011151;28;20093;-66
2023/05/30 12:40:16;;;;;;;4.93;1.70;;;30.80;52.50;;;;;;5004646;28;20041;-66
2023/05/30 12:42:43;;;;;;;5.10;1.83;;;31.20;52.50;;;;;;4969208;28;20489;-66
2023/05/30 12:45:11;;;;;;;5.75;1.38;;;31.20;52.20;;;;;;4970029;28;20034;-66
2023/05/30 12:47:37;;;;;;;6.78;1.92;;;31.40;52.30;;;;;;4999052;28;21363;-67
2023/05/30 12:50:04;;;;;;;5.55;1.63;;;31.40;52.00;;;;;;5009997;28;20045;-67
2023/05/30 12:52:32;;;;;;;4.30;2.17;;;31.30;51.90;;;;;;5020823;28;20049;-66
2023/05/30 12:54:59;;;;;;;4.32;1.70;;;31.00;52.20;;;;;;5017966;28;20052;-66